Decoded Metar for KDAN (DANVILLE in VA, USA) (IATA:DAN) | Meteo·Mobile Aviation Weather
aviador You're here:

KDAN Decoded Metar

DANVILLE in VA, USA
Report Time2018-11-18 07:53:00
UTC Time2018-11-18 08:39:32
Flight Rules vfr VFR
Wind060° at 03 kt
W.Decomp.*RWY 02: 2.0 kt HW 2.3 kt RCW
RWY 13: 1.5 kt HW 2.6 kt LCW
W.Rank060° ranks 8
Current wind is below 060° avg. (6.1)
Visibility9999 m
Phenomena:N/A
Clouds:N/A
CeilingNone
Temp01°C (ISA -13)
Dew Point01°C (100% RH)
AAT-1.9°C
QNH1026 hPa
Density Alt-1,342 ft
Elevation574 ft
Report Wrong Elevation
Raw Report
METAR KDAN 180753Z AUTO 06003KT 10SM CLR 01/01 A3029 RMK AO2 SLP253
T00110006=

Extra information for KDAN:More info

Metar Taf Metar & Taf Last 4 Metars F.Rules Stats Wind Profile Meteogram Temp Stats Airport Information Weather charts Add Link Nearby VenuesMetar ALERT Operation Metar Decoded Social comments

AIRNAV info for KDAN